Time;durP1;ratioP1;P1;durP2;ratioP2;P2;SDS_P1;SDS_P2;PMS_P1;PMS_P2;Temp;Humidity;BMP_temperature;BMP_pressure;BME280_temperature;BME280_humidity;BME280_pressure;Samples;Min_cycle;Max_cycle;Signal;HPM_P1;HPM_P2
2022/09/23 00:01:55;;;;;;;12.52;7.40;;;;;;;10.57;100.00;101919.16;7374772;19;20061;-73
2022/09/23 00:04:25;;;;;;;11.50;7.35;;;;;;;10.54;100.00;101922.56;7375610;19;20018;-72
2022/09/23 00:06:55;;;;;;;12.60;7.70;;;;;;;10.54;100.00;101917.34;7372351;19;20025;-72
2022/09/23 00:09:25;;;;;;;11.77;7.40;;;;;;;10.54;100.00;101916.44;7375312;19;20707;-71
2022/09/23 00:11:58;;;;;;;15.02;7.80;;;;;;;10.55;100.00;101913.88;7369903;19;20003;-71
2022/09/23 00:14:29;;;;;;;14.60;8.52;;;;;;;10.59;100.00;101917.47;7370927;19;20010;-69
2022/09/23 00:16:59;;;;;;;13.38;7.72;;;;;;;10.58;100.00;101906.09;7361186;19;20073;-71
2022/09/23 00:19:29;;;;;;;15.18;8.32;;;;;;;10.61;100.00;101913.16;7370293;19;20498;-71
2022/09/23 00:21:59;;;;;;;13.43;8.70;;;;;;;10.59;100.00;101901.72;7374686;19;20015;-71
2022/09/23 00:24:31;;;;;;;11.43;7.60;;;;;;;10.54;100.00;101908.56;7373100;19;20041;-71
2022/09/23 00:27:04;;;;;;;14.77;8.05;;;;;;;10.55;100.00;101903.38;7373318;19;20014;-71
2022/09/23 00:29:35;;;;;;;14.07;8.18;;;;;;;10.53;100.00;101905.06;7374006;19;20015;-72
2022/09/23 00:32:06;;;;;;;17.67;10.25;;;;;;;10.56;100.00;101899.91;7378365;19;20022;-72
2022/09/23 00:34:36;;;;;;;14.77;7.88;;;;;;;10.55;100.00;101903.38;7382394;19;20022;-71
2022/09/23 00:37:08;;;;;;;12.07;8.02;;;;;;;10.54;100.00;101901.59;7382178;19;20022;-71
2022/09/23 00:39:38;;;;;;;13.48;7.25;;;;;;;10.51;100.00;101898.88;7380551;19;20014;-71
2022/09/23 00:42:15;;;;;;;13.32;7.85;;;;;;;10.52;100.00;101895.41;7380537;19;20014;-71
2022/09/23 00:44:49;;;;;;;18.02;8.68;;;;;;;10.53;100.00;101897.19;7383429;19;20011;-70
2022/09/23 00:47:22;;;;;;;;;;;;;;;10.47;100.00;101900.50;7385300;19;20020;-71
2022/09/23 00:50:00;;;;;;;13.38;8.20;;;;;;;10.45;100.00;101899.59;7383638;19;19947;-71
2022/09/23 00:52:32;;;;;;;12.70;7.68;;;;;;;10.40;100.00;101889.81;7380278;19;20025;-71
2022/09/23 00:55:06;;;;;;;14.63;7.80;;;;;;;10.41;100.00;101886.31;7384416;19;20042;-70
2022/09/23 00:57:41;;;;;;;12.88;7.05;;;;;;;10.41;100.00;101896.81;7382821;19;20324;-69
2022/09/23 01:00:14;;;;;;;15.43;8.38;;;;;;;10.37;100.00;101895.88;7385073;19;20339;-69
2022/09/23 01:02:44;;;;;;;15.13;8.90;;;;;;;10.36;100.00;101894.09;7382783;19;20021;-69
2022/09/23 01:05:14;;;;;;;14.45;8.35;;;;;;;10.36;100.00;101885.31;7384275;19;20019;-69
2022/09/23 01:07:44;;;;;;;12.35;7.20;;;;;;;10.35;100.00;101886.16;7380483;19;20014;-69
2022/09/23 01:10:16;;;;;;;13.95;7.88;;;;;;;10.35;100.00;101891.41;7381883;19;20026;-69
2022/09/23 01:13:14;;;;;;;14.70;9.18;;;;;;;10.33;100.00;101893.09;7380417;19;20025;-69
2022/09/23 01:15:51;;;;;;;13.20;7.50;;;;;;;10.35;100.00;101886.16;7381527;19;20014;-69
2022/09/23 01:18:33;;;;;;;14.25;8.63;;;;;;;10.38;100.00;101886.28;7383803;19;20042;-69
2022/09/23 01:21:21;;;;;;;14.85;9.05;;;;;;;10.39;100.00;101877.56;7383577;19;20015;-69
2022/09/23 01:24:30;;;;;;;13.05;7.90;;;;;;;10.39;100.00;101877.56;7382630;19;20019;-69
2022/09/23 01:27:11;;;;;;;16.30;8.32;;;;;;;10.36;100.00;101878.34;7380656;19;20018;-69
2022/09/23 01:30:17;;;;;;;12.27;8.00;;;;;;;10.34;100.00;101874.78;7382751;19;20022;-69
2022/09/23 01:33:07;;;;;;;15.38;8.95;;;;;;;10.38;100.00;101867.91;7381083;19;20459;-69
2022/09/23 01:35:49;;;;;;;11.55;7.85;;;;;;;10.36;100.00;101877.47;7382952;19;20494;-69
2022/09/23 01:38:28;;;;;;;12.52;8.00;;;;;;;10.30;100.00;101869.41;7378932;19;20022;-69
2022/09/23 01:41:07;;;;;;;14.68;8.52;;;;;;;10.30;100.00;101864.16;7382484;19;20022;-69
2022/09/23 01:43:44;;;;;;;13.88;9.18;;;;;;;10.36;100.00;101851.25;7380925;19;20011;-72
2022/09/23 01:46:23;;;;;;;15.50;9.55;;;;;;;10.35;100.00;101855.59;7379787;19;20011;-71
2022/09/23 01:49:08;;;;;;;15.75;9.80;;;;;;;10.34;100.00;101850.31;7385150;19;20018;-72
2022/09/23 01:51:42;;;;;;;16.42;9.00;;;;;;;10.33;100.00;101846.78;7383753;19;20014;-72
2022/09/23 01:54:17;;;;;;;13.80;8.70;;;;;;;10.34;100.00;101843.31;7379540;19;20007;-69
2022/09/23 01:56:53;;;;;;;13.35;9.13;;;;;;;10.38;100.00;101846.94;7383065;19;20017;-71
2022/09/23 01:59:33;;;;;;;13.77;8.70;;;;;;;10.39;100.00;101851.34;7382861;19;20439;-72
2022/09/23 02:02:09;;;;;;;13.40;9.32;;;;;;;10.39;100.00;101840.84;7382077;19;20006;-72
2022/09/23 02:04:47;;;;;;;13.77;9.18;;;;;;;10.42;100.00;101836.53;7382285;19;20037;-72
2022/09/23 02:07:21;;;;;;;13.20;9.25;;;;;;;10.45;100.00;101835.75;7381931;19;20010;-72
2022/09/23 02:09:57;;;;;;;17.40;9.93;;;;;;;10.45;100.00;101838.38;7380885;19;20019;-72
2022/09/23 02:12:31;;;;;;;15.60;8.75;;;;;;;10.44;100.00;101831.34;7379158;19;20010;-70
2022/09/23 02:15:05;;;;;;;14.40;9.10;;;;;;;10.45;100.00;101835.75;7382541;19;20024;-69
2022/09/23 02:17:40;;;;;;;16.17;8.75;;;;;;;10.44;100.00;101829.63;7380999;19;20015;-70
2022/09/23 02:20:19;;;;;;;15.15;9.20;;;;;;;10.45;100.00;101825.25;7382361;19;20025;-69
2022/09/23 02:22:54;;;;;;;14.45;9.57;;;;;;;10.42;100.00;101827.78;7381369;19;20010;-70
2022/09/23 02:25:27;;;;;;;14.27;9.30;;;;;;;10.41;100.00;101829.53;7383810;19;20018;-69
2022/09/23 02:28:02;;;;;;;12.70;8.83;;;;;;;10.39;100.00;101830.34;7378065;19;20018;-70
2022/09/23 02:30:38;;;;;;;15.80;10.18;;;;;;;10.38;100.00;101829.47;7384708;19;20022;-72
2022/09/23 02:33:12;;;;;;;14.55;9.23;;;;;;;10.35;100.00;101831.09;7380843;19;20022;-72
2022/09/23 02:35:52;;;;;;;14.73;8.25;;;;;;;10.33;100.00;101824.94;7379720;19;20423;-72
2022/09/23 02:38:30;;;;;;;17.27;10.05;;;;;;;10.31;100.00;101826.63;7383640;19;20466;-73
2022/09/23 02:41:08;;;;;;;15.68;8.80;;;;;;;10.28;100.00;101819.53;7383129;19;20011;-72
2022/09/23 02:43:47;;;;;;;14.80;9.77;;;;;;;10.28;100.00;101811.69;7379287;19;20014;-71
2022/09/23 02:46:18;;;;;;;17.58;9.88;;;;;;;10.28;100.00;101814.31;7380447;19;20022;-72
2022/09/23 02:48:53;;;;;;;16.08;9.25;;;;;;;10.33;100.00;101809.19;7381320;19;20389;-72
2022/09/23 02:51:27;;;;;;;15.20;9.05;;;;;;;10.33;100.00;101799.59;7380580;19;20018;-70
2022/09/23 02:53:57;;;;;;;;;;;;;;;10.36;100.00;101798.78;7375076;19;20048;-71
2022/09/23 02:56:27;;;;;;;13.95;8.95;;;;;;;10.36;100.00;101799.69;7380684;19;19922;-70
2022/09/23 02:58:57;;;;;;;16.00;9.48;;;;;;;10.39;100.00;101801.50;7380489;19;20018;-68
2022/09/23 03:01:38;;;;;;;16.23;10.50;;;;;;;10.35;100.00;101792.66;7380389;19;20010;-68
2022/09/23 03:04:16;;;;;;;16.77;9.82;;;;;;;10.34;100.00;101797.88;7379417;19;21274;-68
2022/09/23 03:07:02;;;;;;;14.70;9.35;;;;;;;10.30;100.00;101794.25;7378892;19;20014;-71
2022/09/23 03:09:37;;;;;;;15.25;9.25;;;;;;;10.27;100.00;101794.16;7379954;19;20014;-71
2022/09/23 03:12:16;;;;;;;15.20;9.00;;;;;;;10.27;100.00;101795.91;7379353;19;20424;-71
2022/09/23 03:14:54;;;;;;;14.30;9.95;;;;;;;10.28;100.00;101789.81;7379169;19;20018;-71
2022/09/23 03:17:31;;;;;;;17.55;9.13;;;;;;;10.24;100.00;101787.94;7378716;19;20469;-71
2022/09/23 03:20:09;;;;;;;15.57;9.68;;;;;;;10.23;100.00;101787.06;7379203;19;20021;-71
2022/09/23 03:22:47;;;;;;;17.90;10.05;;;;;;;10.22;100.00;101794.88;7376981;19;20022;-71
2022/09/23 03:25:21;;;;;;;17.30;10.20;;;;;;;10.22;100.00;101790.53;7381238;19;20027;-70
2022/09/23 03:27:51;;;;;;;16.83;9.73;;;;;;;10.24;100.00;101793.19;7376964;19;20007;-71
2022/09/23 03:30:21;;;;;;;12.48;8.30;;;;;;;10.22;100.00;101789.63;7377543;19;20006;-71
2022/09/23 03:32:52;;;;;;;14.55;9.73;;;;;;;10.25;100.00;101789.72;7378290;19;20010;-71
2022/09/23 03:35:25;;;;;;;16.08;10.25;;;;;;;10.27;100.00;101796.78;7377530;19;20486;-71
2022/09/23 03:38:07;;;;;;;18.80;10.55;;;;;;;10.27;100.00;101793.28;7379500;19;20018;-70
2022/09/23 03:40:42;;;;;;;17.02;10.07;;;;;;;10.33;100.00;101789.09;7379571;19;20010;-68
2022/09/23 03:43:13;;;;;;;16.13;9.65;;;;;;;10.37;100.00;101790.97;7380271;19;20522;-69
2022/09/23 03:45:43;;;;;;;18.40;9.52;;;;;;;10.37;100.00;101784.84;7381458;19;20021;-69
2022/09/23 03:48:13;;;;;;;15.13;10.15;;;;;;;10.37;100.00;101769.09;7379832;19;20028;-69
2022/09/23 03:50:43;;;;;;;20.27;11.05;;;;;;;10.41;100.00;101778.81;7379914;19;20588;-68
2022/09/23 03:53:17;;;;;;;16.02;9.77;;;;;;;10.43;100.00;101777.13;7372367;19;20007;-68
2022/09/23 03:55:47;;;;;;;14.98;9.45;;;;;;;10.46;100.00;101761.47;7380240;19;20011;-68
2022/09/23 03:58:17;;;;;;;19.00;10.63;;;;;;;10.47;100.00;101756.28;7377781;19;20014;-68
2022/09/23 04:00:48;;;;;;;17.30;10.45;;;;;;;10.50;100.00;101755.47;7380179;19;20050;-69
2022/09/23 04:03:17;;;;;;;15.75;10.23;;;;;;;10.53;100.00;101754.66;7378332;19;20011;-68
2022/09/23 04:05:47;;;;;;;18.23;9.57;;;;;;;10.56;100.00;101747.78;7377427;19;20029;-69
2022/09/23 04:08:19;;;;;;;16.05;10.68;;;;;;;10.59;100.00;101747.84;7383748;19;20054;-68
2022/09/23 04:10:49;;;;;;;16.60;10.10;;;;;;;10.60;100.00;101746.13;7383994;19;20014;-69
2022/09/23 04:13:23;;;;;;;;;;;;;;;10.61;100.00;101746.16;7378650;19;20331;-69
2022/09/23 04:15:52;;;;;;;14.43;8.80;;;;;;;10.60;100.00;101747.00;7384259;19;20396;-69
2022/09/23 04:18:22;;;;;;;15.50;9.25;;;;;;;10.59;100.00;101747.84;7385373;19;20026;-69
2022/09/23 04:20:52;;;;;;;15.60;8.70;;;;;;;10.58;100.00;101743.44;7384731;19;20021;-69
2022/09/23 04:23:25;;;;;;;16.25;9.25;;;;;;;10.57;100.00;101736.44;7385171;19;20006;-70
2022/09/23 04:25:55;;;;;;;15.43;9.65;;;;;;;10.57;100.00;101743.41;7384738;19;20029;-69
2022/09/23 04:28:25;;;;;;;16.88;10.02;;;;;;;10.58;100.00;101746.06;7383136;19;20094;-68
2022/09/23 04:30:56;;;;;;;16.33;10.07;;;;;;;10.58;100.00;101743.44;7384924;19;20034;-69
2022/09/23 04:33:26;;;;;;;15.52;9.35;;;;;;;10.57;100.00;101741.69;7382477;19;20507;-69
2022/09/23 04:35:57;;;;;;;15.07;8.95;;;;;;;10.58;100.00;101738.22;7381297;19;20015;-69
2022/09/23 04:38:30;;;;;;;15.55;9.18;;;;;;;10.58;100.00;101742.56;7383514;19;20014;-69
2022/09/23 04:40:59;;;;;;;16.48;9.05;;;;;;;10.57;100.00;101736.44;7387188;19;20070;-69
2022/09/23 04:43:30;;;;;;;17.67;9.95;;;;;;;10.59;100.00;101739.97;7384629;19;20350;-69
2022/09/23 04:46:02;;;;;;;17.25;10.18;;;;;;;10.58;100.00;101732.06;7387935;19;20015;-69
2022/09/23 04:48:32;;;;;;;19.50;10.32;;;;;;;10.59;100.00;101739.97;7385505;19;20022;-68
2022/09/23 04:51:05;;;;;;;14.70;8.60;;;;;;;10.59;100.00;101741.72;7384396;19;20018;-69
2022/09/23 04:53:38;;;;;;;16.17;9.10;;;;;;;10.59;100.00;101739.97;7378393;19;20018;-70
2022/09/23 04:56:11;;;;;;;20.42;10.43;;;;;;;10.60;100.00;101739.13;7381975;19;20017;-70
2022/09/23 04:58:42;;;;;;;17.45;10.25;;;;;;;10.60;100.00;101739.13;7381246;19;20021;-69
2022/09/23 05:01:12;;;;;;;15.30;9.32;;;;;;;10.62;100.00;101740.06;7381809;19;20015;-69
2022/09/23 05:03:43;;;;;;;14.23;9.77;;;;;;;10.64;100.00;101740.09;7380219;19;20014;-68
2022/09/23 05:06:15;;;;;;;16.02;10.25;;;;;;;10.64;100.00;101743.63;7381099;19;20017;-70
2022/09/23 05:08:52;;;;;;;16.88;10.60;;;;;;;10.66;100.00;101741.03;7380310;19;20422;-69
2022/09/23 05:11:23;;;;;;;15.27;9.63;;;;;;;10.66;100.00;101749.81;7378587;19;20011;-69
2022/09/23 05:13:54;;;;;;;18.17;11.80;;;;;;;10.67;100.00;101748.94;7378849;19;20772;-69
2022/09/23 05:16:25;;;;;;;16.55;10.68;;;;;;;10.68;100.00;101753.34;7380572;19;20022;-69
2022/09/23 05:18:56;;;;;;;18.27;10.82;;;;;;;10.71;100.00;101742.94;7384754;19;20015;-70
2022/09/23 05:21:27;;;;;;;19.48;11.20;;;;;;;10.74;100.00;101739.50;7381392;19;20018;-69
2022/09/23 05:24:00;;;;;;;18.40;10.30;;;;;;;10.78;100.00;101749.25;7382351;19;20304;-69
2022/09/23 05:26:32;;;;;;;21.00;11.33;;;;;;;10.81;100.00;101742.34;7379623;19;20064;-69
2022/09/23 05:29:02;;;;;;;19.75;11.30;;;;;;;10.84;100.00;101748.53;7383977;19;20282;-70
2022/09/23 05:31:35;;;;;;;20.42;10.35;;;;;;;10.86;100.00;101745.09;7376815;19;20074;-71
2022/09/23 05:34:07;;;;;;;20.27;11.18;;;;;;;10.88;100.00;101745.13;7380109;19;20090;-71
2022/09/23 05:36:38;;;;;;;18.45;12.13;;;;;;;10.91;100.00;101751.34;7382748;19;20350;-71
2022/09/23 05:39:11;;;;;;;19.45;11.00;;;;;;;10.95;100.00;101749.69;7381827;19;20017;-71
2022/09/23 05:41:42;;;;;;;17.88;11.68;;;;;;;10.98;100.00;101752.41;7383892;19;20015;-71
2022/09/23 05:44:11;;;;;;;22.83;12.18;;;;;;;11.04;100.00;101757.81;7381451;19;20014;-71
2022/09/23 05:46:41;;;;;;;16.42;11.43;;;;;;;11.03;100.00;101748.16;7379188;19;20006;-70
2022/09/23 05:49:11;;;;;;;16.42;10.50;;;;;;;11.06;100.00;101753.47;7381126;19;20014;-70
2022/09/23 05:51:41;;;;;;;20.95;12.45;;;;;;;11.12;100.00;101748.38;7377983;19;20011;-70
2022/09/23 05:54:13;;;;;;;21.08;11.30;;;;;;;11.15;100.00;101748.47;7374249;19;20028;-69
2022/09/23 05:56:43;;;;;;;20.77;11.18;;;;;;;11.20;100.00;101748.59;7380744;19;20096;-70
2022/09/23 05:59:12;;;;;;;19.85;11.63;;;;;;;11.21;100.00;101748.63;7379469;19;20006;-73
2022/09/23 06:01:42;;;;;;;19.67;11.15;;;;;;;11.24;100.00;101759.19;7378399;19;20015;-73
2022/09/23 06:04:14;;;;;;;17.38;11.40;;;;;;;11.27;100.00;101743.53;7379184;19;20010;-75
2022/09/23 06:06:44;;;;;;;22.52;11.45;;;;;;;11.31;100.00;101750.63;7378120;19;20503;-75
2022/09/23 06:09:17;;;;;;;40.65;21.00;;;;;;;11.37;100.00;101745.53;7378572;19;20011;-75
2022/09/23 06:11:46;;;;;;;66.15;36.38;;;;;;;11.42;100.00;101746.53;7379962;19;20376;-70
2022/09/23 06:14:16;;;;;;;36.15;17.50;;;;;;;11.45;100.00;101754.44;7379362;19;20014;-70
2022/09/23 06:16:46;;;;;;;46.47;25.02;;;;;;;11.50;100.00;101746.69;7381138;19;20010;-71
2022/09/23 06:19:16;;;;;;;49.92;29.00;;;;;;;11.54;100.00;101742.38;7382562;19;20022;-71
2022/09/23 06:21:45;;;;;;;36.22;26.13;;;;;;;11.59;100.00;101740.75;7380120;19;20007;-71
2022/09/23 06:24:17;;;;;;;60.67;39.65;;;;;;;11.66;100.00;101742.69;7378923;19;20506;-70
2022/09/23 06:26:54;;;;;;;114.88;69.85;;;;;;;11.69;100.00;101743.63;7379364;19;20018;-72
2022/09/23 06:29:23;;;;;;;31.60;21.80;;;;;;;11.74;100.00;101741.09;7380292;19;20017;-71
2022/09/23 06:31:58;;;;;;;34.63;26.00;;;;;;;11.80;100.00;101741.28;7380073;19;20014;-72
2022/09/23 06:34:28;;;;;;;42.33;32.65;;;;;;;11.86;100.00;101741.41;7377998;19;20022;-72
2022/09/23 06:36:59;;;;;;;43.47;37.47;;;;;;;11.92;100.00;101733.66;7379586;19;20017;-71
2022/09/23 06:39:47;;;;;;;59.47;48.50;;;;;;;12.00;100.00;101736.47;7377723;19;20018;-74
2022/09/23 06:42:20;;;;;;;37.60;27.02;;;;;;;12.08;100.00;101732.25;7379033;19;20014;-74
2022/09/23 06:44:49;;;;;;;106.93;32.10;;;;;;;12.15;100.00;101733.28;7378964;19;20078;-73
2022/09/23 06:47:19;;;;;;;57.38;38.60;;;;;;;12.22;100.00;101735.19;7380653;19;20010;-74
2022/09/23 06:49:50;;;;;;;48.08;32.50;;;;;;;12.33;100.00;101734.53;7377120;19;20014;-73
2022/09/23 06:52:20;;;;;;;57.20;45.35;;;;;;;12.41;100.00;101727.69;7370636;19;20083;-81
2022/09/23 06:54:52;;;;;;;100.20;73.28;;;;;;;12.52;100.00;101732.25;7373034;19;20554;-75
2022/09/23 06:57:23;;;;;;;113.07;88.80;;;;;;;12.53;100.00;101727.03;7374843;19;20017;-77
2022/09/23 06:59:52;;;;;;;55.50;38.97;;;;;;;12.57;100.00;101728.84;7375132;19;20478;-73
2022/09/23 07:02:22;;;;;;;73.57;66.45;;;;;;;12.63;100.00;101726.34;7375618;19;20492;-74
2022/09/23 07:04:55;;;;;;;98.38;84.35;;;;;;;12.71;100.00;101732.63;7375265;19;20044;-76
2022/09/23 07:07:25;;;;;;;192.38;146.57;;;;;;;12.80;100.00;101738.94;7374889;19;20017;-76
2022/09/23 07:09:57;;;;;;;303.83;217.88;;;;;;;12.90;100.00;101739.13;7376405;19;20021;-75
2022/09/23 07:12:27;;;;;;;251.13;153.10;;;;;;;12.97;100.00;101726.97;7376621;19;20014;-74
2022/09/23 07:14:57;;;;;;;620.97;387.17;;;;;;;13.06;100.00;101727.13;7372438;19;20535;-73
2022/09/23 07:17:27;;;;;;;496.80;282.17;;;;;;;13.17;100.00;101725.59;7374416;19;20015;-74
2022/09/23 07:19:57;;;;;;;577.40;375.95;;;;;;;13.24;100.00;101730.09;7374764;19;20337;-78
2022/09/23 07:22:27;;;;;;;199.85;108.15;;;;;;;13.36;100.00;101729.41;7377827;19;20113;-76
2022/09/23 07:24:59;;;;;;;91.75;53.47;;;;;;;13.43;100.00;101725.13;7376103;19;20668;-76
2022/09/23 07:27:29;;;;;;;60.92;44.20;;;;;;;13.49;100.00;101728.75;7376866;19;20021;-74
2022/09/23 07:29:59;;;;;;;39.17;28.13;;;;;;;13.54;100.00;101728.78;7374587;19;20022;-73
2022/09/23 07:32:29;;;;;;;42.67;23.67;;;;;;;13.54;100.00;101726.13;7371320;19;20014;-74
2022/09/23 07:35:13;;;;;;;31.30;19.85;;;;;;;13.65;100.00;101727.19;7375426;19;20010;-74
2022/09/23 07:37:42;;;;;;;28.75;19.73;;;;;;;13.66;100.00;101724.56;7376450;19;20378;-74
2022/09/23 07:40:14;;;;;;;46.95;39.65;;;;;;;13.76;100.00;101717.69;7374808;19;20017;-75
2022/09/23 07:42:44;;;;;;;24.73;17.73;;;;;;;13.83;100.00;101727.47;7375480;19;20033;-73
2022/09/23 07:45:14;;;;;;;70.90;52.78;;;;;;;13.87;100.00;101723.13;7374694;19;20013;-76
2022/09/23 07:47:44;;;;;;;69.15;54.75;;;;;;;13.92;100.00;101722.31;7373846;19;20006;-75
2022/09/23 07:50:14;;;;;;;20.80;14.55;;;;;;;14.04;100.00;101733.03;7375146;19;20014;-75
2022/09/23 07:52:44;;;;;;;27.25;16.98;;;;;;;14.09;100.00;101725.19;7372301;19;20014;-74
2022/09/23 07:55:17;;;;;;;22.75;17.35;;;;;;;14.18;100.00;101722.66;7376917;19;20021;-74
2022/09/23 07:57:49;;;;;;;41.08;36.78;;;;;;;14.27;100.00;101716.59;7377532;19;20025;-74
2022/09/23 08:00:20;;;;;;;26.42;19.20;;;;;;;14.27;100.00;101730.69;7375752;19;20215;-74
2022/09/23 08:02:50;;;;;;;27.88;16.63;;;;;;;14.35;100.00;101728.13;7377962;19;20031;-73
2022/09/23 08:05:21;;;;;;;27.27;16.45;;;;;;;14.48;100.00;101729.19;7375188;19;20025;-74
2022/09/23 08:07:51;;;;;;;21.80;16.65;;;;;;;14.58;100.00;101726.66;7375719;19;20011;-74
2022/09/23 08:10:23;;;;;;;19.02;11.82;;;;;;;14.70;100.00;101731.19;7375316;19;20018;-73
2022/09/23 08:12:53;;;;;;;17.80;11.43;;;;;;;14.84;100.00;101720.75;7374937;19;20285;-74
2022/09/23 08:15:22;;;;;;;21.95;12.25;;;;;;;15.00;100.00;101727.97;7378495;19;20014;-74
2022/09/23 08:17:52;;;;;;;19.05;10.48;;;;;;;15.15;100.00;101722.81;7374913;19;20011;-76
2022/09/23 08:23:03;;;;;;;18.13;13.00;;;;;;;15.41;100.00;101730.94;7376287;19;20485;-74
2022/09/23 08:25:36;;;;;;;109.45;33.05;;;;;;;15.51;100.00;101729.25;7375854;19;20082;-74
2022/09/23 08:28:05;;;;;;;86.38;27.00;;;;;;;15.56;100.00;101731.06;7375148;19;20017;-77
2022/09/23 08:30:36;;;;;;;132.40;36.97;;;;;;;15.55;100.00;101723.13;7376487;19;20046;-73
2022/09/23 08:33:06;;;;;;;27.35;20.60;;;;;;;15.61;100.00;101729.34;7376861;19;20251;-73
2022/09/23 08:35:35;;;;;;;18.90;12.45;;;;;;;15.73;100.00;101727.66;7374689;19;20015;-73
2022/09/23 08:38:05;;;;;;;25.55;15.02;;;;;;;15.76;100.00;101736.47;7376797;19;21610;-76
2022/09/23 08:40:41;;;;;;;17.98;11.48;;;;;;;15.86;100.00;101733.03;7371431;19;20107;-74
2022/09/23 08:43:20;;;;;;;14.65;8.98;;;;;;;15.94;100.00;101736.59;7375015;19;20112;-81
2022/09/23 08:45:52;;;;;;;18.83;11.18;;;;;;;15.97;100.00;101730.44;7374301;19;20018;-75
2022/09/23 08:48:28;;;;;;;15.68;9.20;;;;;;;16.01;100.00;101727.81;7378000;19;20013;-74
2022/09/23 08:51:05;;;;;;;15.20;9.82;;;;;;;16.11;100.00;101727.84;7375148;19;20015;-75
2022/09/23 08:53:49;;;;;;;12.93;9.20;;;;;;;16.19;100.00;101737.59;7375980;19;20013;-74
2022/09/23 08:56:24;;;;;;;17.00;11.23;;;;;;;16.22;100.00;101736.72;7380254;19;20031;-73
2022/09/23 08:59:17;;;;;;;17.15;9.50;;;;;;;16.34;100.00;101728.84;7381976;19;20038;-75
2022/09/23 09:01:49;;;;;;;16.40;9.32;;;;;;;16.19;100.00;101737.59;7384321;19;20026;-79
2022/09/23 09:04:24;;;;;;;16.35;10.43;;;;;;;16.33;100.00;101735.00;7384118;19;20024;-81
2022/09/23 09:06:59;;;;;;;19.63;12.57;;;;;;;16.35;100.00;101736.78;7386238;19;20040;-83
2022/09/23 09:09:53;;;;;;;16.58;9.40;;;;;;;16.60;100.00;101739.53;7379206;19;21040;-74
2022/09/23 09:12:30;;;;;;;20.77;9.90;;;;;;;16.67;100.00;101746.59;7378066;19;20006;-70
2022/09/23 09:18:06;;;;;;;20.10;12.00;;;;;;;16.64;100.00;101742.19;7381300;19;20189;-74
2022/09/23 09:20:50;;;;;;;19.52;11.52;;;;;;;16.65;100.00;101743.06;7383090;19;20106;-75
2022/09/23 09:23:23;;;;;;;;;;;;;;;16.70;100.00;101743.06;7381152;19;20019;-74
2022/09/23 09:25:54;;;;;;;13.93;8.13;;;;;;;16.85;100.00;101728.09;7384097;19;19919;-74
2022/09/23 09:28:32;;;;;;;16.88;9.13;;;;;;;16.94;100.00;101730.75;7379354;19;20454;-74
2022/09/23 09:31:04;;;;;;;97.68;91.47;;;;;;;17.15;100.00;101735.19;7380669;19;20010;-79
2022/09/23 09:33:43;;;;;;;31.52;13.13;;;;;;;17.31;100.00;101736.09;7379280;19;20007;-80
2022/09/23 09:36:26;;;;;;;17.42;8.77;;;;;;;17.58;100.00;101722.81;7380237;19;20038;-75
2022/09/23 09:38:57;;;;;;;20.97;10.07;;;;;;;18.00;100.00;101722.72;7379446;19;20014;-73
2022/09/23 09:41:30;;;;;;;17.30;10.70;;;;;;;18.48;100.00;101717.19;7381804;19;20021;-77
2022/09/23 09:44:09;;;;;;;17.33;8.93;;;;;;;18.72;100.00;101710.00;7379574;19;20082;-72
2022/09/23 09:46:51;;;;;;;18.15;13.27;;;;;;;18.43;100.00;101713.69;7384436;19;20133;-70
2022/09/23 09:49:27;;;;;;;14.13;9.00;;;;;;;18.26;100.00;101707.56;7381317;19;20022;-73
2022/09/23 09:52:14;;;;;;;26.98;16.10;;;;;;;18.21;100.00;101701.41;7380161;19;20022;-76
2022/09/23 09:54:44;;;;;;;16.40;11.13;;;;;;;17.82;100.00;101716.56;7377383;19;20029;-74
2022/09/23 09:57:25;;;;;;;57.75;53.38;;;;;;;17.93;100.00;101711.22;7379859;19;20022;-74
2022/09/23 10:00:00;;;;;;;97.57;90.13;;;;;;;18.14;100.00;101700.53;7378448;19;20141;-73
2022/09/23 10:02:35;;;;;;;15.27;10.40;;;;;;;18.01;100.00;101706.78;7376967;19;20028;-73
2022/09/23 10:05:09;;;;;;;18.75;9.30;;;;;;;18.12;100.00;101704.97;7377033;19;20010;-72
2022/09/23 10:07:39;;;;;;;11.77;7.82;;;;;;;17.98;100.00;101704.13;7383009;19;20048;-70
2022/09/23 10:10:22;;;;;;;14.27;7.85;;;;;;;18.29;100.00;101699.59;7381954;19;20018;-72
2022/09/23 10:13:16;;;;;;;42.70;10.65;;;;;;;18.19;100.00;101693.44;7378956;19;20025;-70
2022/09/23 10:16:01;;;;;;;12.20;7.72;;;;;;;18.11;100.00;101699.66;7379768;19;20018;-74
2022/09/23 10:18:38;;;;;;;13.45;7.82;;;;;;;17.83;100.00;101698.88;7375972;19;19999;-71
2022/09/23 10:21:14;;;;;;;14.55;7.90;;;;;;;17.79;100.00;101703.31;7379604;19;20447;-71
2022/09/23 10:23:53;;;;;;;14.93;8.68;;;;;;;17.72;100.00;101704.22;7379196;19;20015;-71
2022/09/23 10:26:31;;;;;;;15.20;8.40;;;;;;;17.74;100.00;101694.47;7377759;19;20452;-71
2022/09/23 10:29:21;;;;;;;14.40;8.55;;;;;;;17.83;100.00;101699.75;7377161;19;20018;-69
2022/09/23 10:32:19;;;;;;;16.27;8.45;;;;;;;17.81;100.00;101696.22;7375976;19;20015;-69
2022/09/23 10:34:54;;;;;;;14.40;8.23;;;;;;;17.85;100.00;101699.75;7373309;19;20011;-70
2022/09/23 10:37:31;;;;;;;14.02;8.30;;;;;;;17.74;100.00;101694.47;7378429;19;20023;-69
2022/09/23 10:48:59;;;;;;;12.80;8.15;;;;;;;17.85;100.00;101695.34;7379716;19;20022;-70
2022/09/23 10:51:39;;;;;;;12.20;7.22;;;;;;;17.95;100.00;101696.19;7381794;19;20490;-70
2022/09/23 10:54:22;;;;;;;13.00;7.70;;;;;;;17.76;100.00;101695.34;7371922;19;20011;-70
2022/09/23 10:56:59;;;;;;;14.25;7.35;;;;;;;18.13;100.00;101684.63;7375701;19;20021;-69
2022/09/23 10:59:52;;;;;;;14.30;7.82;;;;;;;18.33;100.00;101680.09;7378438;19;20015;-68
2022/09/23 11:02:44;;;;;;;15.70;9.32;;;;;;;18.29;100.00;101681.00;7375897;19;20749;-68
2022/09/23 11:05:37;;;;;;;10.90;6.93;;;;;;;18.50;100.00;101678.22;7377433;19;20034;-67
2022/09/23 11:08:26;;;;;;;16.40;7.70;;;;;;;18.51;100.00;101680.00;7379911;19;20015;-70
2022/09/23 11:11:32;;;;;;;13.38;7.78;;;;;;;18.60;100.00;101685.28;7378947;19;20212;-67
2022/09/23 11:14:14;;;;;;;15.98;7.72;;;;;;;18.57;100.00;101685.25;7377459;19;20053;-68
2022/09/23 11:17:01;;;;;;;16.33;7.55;;;;;;;18.58;100.00;101680.84;7374624;19;20207;-67
2022/09/23 11:19:55;;;;;;;14.10;7.15;;;;;;;18.84;100.00;101676.22;7376954;19;20338;-67
2022/09/23 11:22:45;;;;;;;12.75;7.95;;;;;;;18.97;100.00;101676.13;7378652;19;20017;-67
2022/09/23 11:25:29;;;;;;;15.32;8.48;;;;;;;18.83;100.00;101678.91;7373487;19;20101;-67
2022/09/23 11:28:24;;;;;;;15.20;9.73;;;;;;;18.72;100.00;101678.13;7373727;19;20019;-67
2022/09/23 11:31:03;;;;;;;13.57;7.47;;;;;;;19.02;100.00;101669.88;7375501;19;20034;-67
2022/09/23 11:33:45;;;;;;;14.88;8.23;;;;;;;19.15;100.00;101673.31;7374478;19;20015;-67
2022/09/23 11:36:23;;;;;;;14.15;8.02;;;;;;;19.18;100.00;101667.97;7376292;19;20343;-67
2022/09/23 11:38:58;;;;;;;13.18;8.52;;;;;;;19.09;100.00;101668.94;7378357;19;20597;-67
2022/09/23 11:41:32;;;;;;;16.98;9.63;;;;;;;19.13;100.00;101668.03;7380357;19;20026;-67
2022/09/23 11:44:12;;;;;;;16.77;9.40;;;;;;;19.47;100.00;101660.59;7378224;19;20028;-67
2022/09/23 11:46:46;;;;;;;15.55;9.35;;;;;;;19.41;100.00;101659.78;7378212;19;20014;-67
2022/09/23 11:49:20;;;;;;;11.77;7.82;;;;;;;19.56;100.00;101659.66;7378106;19;20014;-67
2022/09/23 11:52:02;;;;;;;15.13;7.75;;;;;;;19.52;100.00;101663.25;7377681;19;20498;-67
2022/09/23 11:54:41;;;;;;;14.68;8.27;;;;;;;19.65;100.00;101653.34;7373773;19;20616;-68
2022/09/23 11:57:25;;;;;;;14.68;8.82;;;;;;;19.62;100.00;101646.28;7375111;19;20011;-69